createdAt,value
2018-08-23T00:01:14.889Z,26.10
2018-08-23T00:03:43.893Z,26.33
2018-08-23T00:06:12.920Z,27.50
2018-08-23T00:08:49.025Z,27.00
2018-08-23T00:11:22.794Z,26.80
2018-08-23T00:13:51.841Z,25.80
2018-08-23T00:16:25.121Z,25.67
2018-08-23T00:18:54.441Z,24.90
2018-08-23T00:21:26.308Z,27.57
2018-08-23T00:24:06.985Z,26.53
2018-08-23T00:26:36.773Z,28.50
2018-08-23T00:29:12.011Z,24.47
2018-08-23T00:31:41.405Z,25.57
2018-08-23T00:34:11.081Z,25.90
2018-08-23T00:36:40.093Z,25.07
2018-08-23T00:39:09.996Z,26.33
2018-08-23T00:41:39.136Z,26.73
2018-08-23T00:44:08.140Z,25.97
2018-08-23T00:46:37.208Z,26.87
2018-08-23T00:49:06.262Z,28.07
2018-08-23T00:51:38.975Z,25.40
2018-08-23T00:54:07.944Z,29.43
2018-08-23T00:56:37.212Z,28.37
2018-08-23T00:59:06.199Z,38.03
2018-08-23T01:01:35.196Z,31.40
2018-08-23T01:04:04.478Z,30.17
2018-08-23T01:06:42.824Z,32.00
2018-08-23T01:09:12.841Z,32.70
2018-08-23T01:11:41.915Z,29.43
2018-08-23T01:14:11.277Z,34.03
2018-08-23T01:16:40.364Z,30.10
2018-08-23T01:20:17.778Z,33.07
2018-08-23T01:22:58.321Z,35.93
2018-08-23T01:25:30.200Z,36.13
2018-08-23T01:27:59.225Z,33.23
2018-08-23T01:30:28.265Z,34.47
2018-08-23T01:32:57.600Z,34.10
2018-08-23T01:35:26.972Z,33.37
2018-08-23T01:37:55.976Z,33.20
2018-08-23T01:40:25.000Z,35.60
2018-08-23T01:42:53.999Z,34.33
2018-08-23T01:45:23.021Z,35.17
2018-08-23T01:47:59.131Z,36.70
2018-08-23T01:50:28.136Z,37.47
2018-08-23T01:52:57.855Z,35.90
2018-08-23T01:55:26.985Z,38.17
2018-08-23T01:57:56.091Z,40.10
2018-08-23T02:00:27.279Z,36.43
2018-08-23T02:02:56.274Z,38.77
2018-08-23T02:05:25.282Z,38.50
2018-08-23T02:07:54.333Z,40.03
2018-08-23T02:10:23.378Z,36.47
2018-08-23T02:12:54.488Z,38.57
2018-08-23T02:15:23.583Z,40.03
2018-08-23T02:17:57.526Z,39.40
2018-08-23T02:20:27.459Z,38.37
2018-08-23T02:22:56.698Z,42.37
2018-08-23T02:25:25.707Z,38.60
2018-08-23T02:27:59.056Z,40.80
2018-08-23T02:30:44.728Z,36.43
2018-08-23T02:33:14.416Z,36.53
2018-08-23T02:35:55.888Z,39.67
2018-08-23T02:38:25.632Z,38.20
2018-08-23T02:40:54.601Z,42.37
2018-08-23T02:43:23.652Z,34.63
2018-08-23T02:45:53.528Z,35.50
2018-08-23T02:48:23.421Z,35.77
2018-08-23T02:50:52.932Z,34.43
2018-08-23T02:53:37.598Z,34.10
2018-08-23T02:56:09.823Z,34.23
2018-08-23T02:58:48.457Z,33.13
2018-08-23T03:01:17.476Z,32.53
2018-08-23T03:04:00.372Z,33.97
2018-08-23T03:06:34.412Z,33.53
2018-08-23T03:09:03.760Z,32.57
2018-08-23T03:11:34.266Z,32.23
2018-08-23T03:14:03.364Z,32.43
2018-08-23T03:16:43.565Z,33.87
2018-08-23T03:19:12.822Z,32.90
2018-08-23T03:21:41.844Z,32.03
2018-08-23T03:24:11.357Z,34.30
2018-08-23T03:26:40.630Z,34.27
2018-08-23T03:29:09.700Z,35.30
2018-08-23T03:31:38.736Z,35.97
2018-08-23T03:34:07.836Z,37.67
2018-08-23T03:36:36.880Z,35.77
2018-08-23T03:39:08.284Z,39.27
2018-08-23T03:41:37.404Z,36.70
2018-08-23T03:44:16.358Z,35.27
2018-08-23T03:46:51.925Z,34.20
2018-08-23T03:49:25.804Z,37.17
2018-08-23T03:51:55.577Z,35.70
2018-08-23T03:54:24.620Z,36.20
2018-08-23T03:57:11.311Z,37.47
2018-08-23T03:59:43.420Z,34.73
2018-08-23T04:02:13.092Z,38.17
2018-08-23T04:04:42.474Z,34.83
2018-08-23T04:07:11.633Z,37.07
2018-08-23T04:09:40.830Z,35.03
2018-08-23T04:12:09.927Z,36.43
2018-08-23T04:14:39.079Z,34.67
2018-08-23T04:17:10.208Z,36.07
2018-08-23T04:19:43.193Z,37.87
2018-08-23T04:22:12.230Z,34.60
2018-08-23T04:24:46.513Z,35.83
2018-08-23T04:27:15.528Z,33.67
2018-08-23T04:29:48.437Z,35.23
2018-08-23T04:32:26.170Z,36.40
2018-08-23T04:34:55.452Z,35.17
2018-08-23T04:37:24.653Z,35.60
2018-08-23T04:39:58.903Z,37.60
2018-08-23T04:42:27.896Z,34.63
2018-08-23T04:44:56.928Z,39.80
2018-08-23T04:47:25.951Z,34.53
2018-08-23T04:49:54.992Z,37.17
2018-08-23T04:52:23.985Z,38.60
2018-08-23T04:54:53.046Z,39.03
2018-08-23T04:57:22.049Z,33.93
2018-08-23T04:59:51.076Z,36.43
2018-08-23T05:02:20.356Z,35.10
2018-08-23T05:04:49.364Z,33.73
2018-08-23T05:07:18.389Z,30.43
2018-08-23T05:09:47.417Z,31.50
2018-08-23T05:12:16.435Z,30.27
2018-08-23T05:14:45.478Z,34.13
2018-08-23T05:17:14.533Z,33.60
2018-08-23T05:19:43.605Z,35.70
2018-08-23T05:22:12.869Z,33.30
2018-08-23T05:24:41.886Z,38.17
2018-08-23T05:27:10.885Z,34.13
2018-08-23T05:29:40.021Z,35.47
2018-08-23T05:32:09.041Z,36.30
2018-08-23T05:34:38.081Z,46.07
2018-08-23T05:37:07.740Z,44.37
2018-08-23T05:39:47.969Z,42.70
2018-08-23T05:42:22.185Z,41.90
2018-08-23T05:44:51.213Z,46.10
2018-08-23T05:47:20.201Z,43.47
2018-08-23T05:49:49.240Z,38.97
2018-08-23T05:52:18.240Z,38.93
2018-08-23T05:54:47.329Z,44.87
2018-08-23T05:57:17.489Z,39.40
2018-08-23T05:59:46.544Z,37.53
2018-08-23T06:02:15.842Z,41.03
2018-08-23T06:04:44.913Z,45.53
2018-08-23T06:07:13.899Z,39.93
2018-08-23T06:09:43.684Z,44.33
2018-08-23T06:12:12.713Z,43.40
2018-08-23T06:14:41.763Z,43.73
2018-08-23T06:17:10.805Z,43.67
2018-08-23T06:19:39.840Z,45.83
2018-08-23T06:22:08.931Z,46.20
2018-08-23T06:24:37.984Z,46.93
2018-08-23T06:27:07.040Z,52.27
2018-08-23T06:29:36.082Z,50.50
2018-08-23T06:32:07.438Z,51.37
2018-08-23T06:34:38.681Z,47.43
2018-08-23T06:37:07.694Z,45.27
2018-08-23T06:39:36.741Z,45.93
2018-08-23T06:42:05.865Z,43.68
2018-08-23T06:44:42.555Z,43.48
2018-08-23T06:47:13.045Z,42.08
2018-08-23T06:49:43.144Z,45.40
2018-08-23T06:52:14.916Z,45.88
2018-08-23T06:54:43.956Z,42.35
2018-08-23T06:57:12.993Z,44.48
2018-08-23T06:59:42.025Z,45.95
2018-08-23T07:02:11.060Z,42.85
2018-08-23T07:04:40.149Z,43.75
2018-08-23T07:07:13.429Z,47.58
2018-08-23T07:09:42.423Z,42.35
2018-08-23T07:12:16.729Z,41.37
2018-08-23T07:14:46.885Z,43.55
2018-08-23T07:17:21.229Z,49.20
2018-08-23T07:19:50.592Z,45.78
2018-08-23T07:22:23.644Z,45.83
2018-08-23T07:24:54.017Z,41.77
2018-08-23T07:27:23.245Z,43.28
2018-08-23T07:29:55.199Z,44.23
2018-08-23T07:32:26.294Z,47.85
2018-08-23T07:35:02.585Z,43.30
2018-08-23T07:37:35.613Z,45.05
2018-08-23T07:40:10.010Z,44.63
2018-08-23T07:42:39.978Z,47.58
2018-08-23T07:45:09.466Z,45.55
2018-08-23T07:47:40.091Z,45.88
2018-08-23T07:50:09.438Z,47.30
2018-08-23T07:52:41.196Z,46.18
2018-08-23T07:55:10.225Z,49.45
2018-08-23T07:57:39.784Z,48.68
2018-08-23T08:00:43.103Z,45.88
2018-08-23T08:03:14.324Z,46.77
2018-08-23T08:05:44.465Z,42.45
2018-08-23T08:08:13.949Z,46.08
2018-08-23T08:10:45.142Z,46.90
2018-08-23T08:13:14.165Z,44.77
2018-08-23T08:15:43.240Z,41.77
2018-08-23T08:18:16.711Z,40.40
2018-08-23T08:20:51.535Z,33.05
2018-08-23T08:23:20.520Z,30.43
2018-08-23T08:25:49.524Z,39.30
2018-08-23T08:28:19.004Z,29.72
2018-08-23T08:30:48.682Z,33.42
2018-08-23T08:33:21.101Z,31.30
2018-08-23T08:35:50.733Z,29.87
2018-08-23T08:38:19.721Z,31.07
2018-08-23T08:40:51.405Z,28.57
2018-08-23T08:43:20.421Z,29.02
2018-08-23T08:45:54.561Z,29.70
2018-08-23T08:48:37.861Z,27.58
2018-08-23T08:51:16.515Z,28.30
2018-08-23T08:53:45.975Z,25.32
2018-08-23T08:56:15.054Z,24.72
2018-08-23T08:58:44.198Z,24.55
2018-08-23T09:01:13.204Z,23.42
2018-08-23T09:03:42.505Z,21.95
2018-08-23T09:06:14.537Z,22.50
2018-08-23T09:08:43.586Z,13.15
2018-08-23T09:11:12.621Z,18.82
2018-08-23T09:13:47.206Z,16.93
2018-08-23T09:16:16.345Z,15.63
2018-08-23T09:18:55.150Z,11.05
2018-08-23T09:21:24.140Z,6.72
2018-08-23T09:23:53.177Z,7.22
2018-08-23T09:26:26.411Z,6.60
2018-08-23T09:28:55.478Z,6.75
2018-08-23T09:31:24.813Z,9.80
2018-08-23T09:33:54.629Z,7.58
2018-08-23T09:36:23.616Z,7.20
2018-08-23T09:38:52.637Z,6.28
2018-08-23T09:41:22.060Z,9.53
2018-08-23T09:43:51.045Z,6.20
2018-08-23T09:46:20.061Z,6.50
2018-08-23T09:48:49.069Z,5.45
2018-08-23T09:51:23.485Z,5.22
2018-08-23T09:53:52.476Z,5.75
2018-08-23T09:56:26.833Z,5.47
2018-08-23T09:58:55.894Z,4.83
2018-08-23T10:01:30.156Z,4.30
2018-08-23T10:04:04.534Z,4.70
2018-08-23T10:06:38.788Z,4.12
2018-08-23T10:09:15.309Z,4.53
2018-08-23T10:11:50.130Z,4.50
2018-08-23T10:14:24.290Z,4.12
2018-08-23T10:16:58.644Z,4.85
2018-08-23T10:19:33.765Z,3.85
2018-08-23T10:22:08.033Z,4.10
2018-08-23T10:24:37.020Z,3.62
2018-08-23T10:27:06.431Z,4.00
2018-08-23T10:29:35.705Z,4.22
2018-08-23T10:32:04.813Z,3.50
2018-08-23T10:34:33.809Z,6.10
2018-08-23T10:37:02.813Z,3.80
2018-08-23T10:39:31.854Z,4.50
2018-08-23T10:42:00.821Z,3.17
2018-08-23T10:44:29.830Z,2.95
2018-08-23T10:46:58.832Z,3.20
2018-08-23T10:49:27.821Z,3.80
2018-08-23T10:51:57.093Z,2.58
2018-08-23T10:54:26.106Z,3.30
2018-08-23T10:56:55.121Z,3.08
2018-08-23T10:59:24.156Z,3.98
2018-08-23T11:01:53.140Z,3.62
2018-08-23T11:04:22.140Z,3.37
2018-08-23T11:06:56.544Z,3.67
2018-08-23T11:09:30.682Z,4.42
2018-08-23T11:11:59.689Z,4.17
2018-08-23T11:14:34.112Z,4.00
2018-08-23T11:17:08.451Z,4.83
2018-08-23T11:20:43.648Z,4.85
2018-08-23T11:23:13.292Z,3.70
2018-08-23T11:25:42.233Z,3.72
2018-08-23T11:28:16.536Z,4.40
2018-08-23T11:30:45.521Z,4.00
2018-08-23T11:33:14.553Z,4.28
2018-08-23T11:35:43.561Z,3.47
2018-08-23T11:38:12.680Z,3.50
2018-08-23T11:40:41.677Z,3.90
2018-08-23T11:43:10.740Z,2.80
2018-08-23T11:45:39.776Z,2.77
2018-08-23T11:48:08.841Z,3.40
2018-08-23T11:50:38.153Z,5.60
2018-08-23T11:53:07.247Z,2.45
2018-08-23T11:55:36.179Z,5.00
2018-08-23T11:58:05.638Z,3.65
2018-08-23T12:00:34.574Z,3.02
2018-08-23T12:03:03.590Z,2.40
2018-08-23T12:05:32.604Z,2.40
2018-08-23T12:08:01.613Z,4.90
2018-08-23T12:10:30.642Z,2.58
2018-08-23T12:12:59.917Z,3.12
2018-08-23T12:15:32.372Z,6.33
2018-08-23T12:18:01.485Z,3.67
2018-08-23T12:20:30.504Z,3.12
2018-08-23T12:22:59.537Z,7.12
2018-08-23T12:25:28.591Z,2.58
2018-08-23T12:28:01.894Z,2.90
2018-08-23T12:30:31.105Z,7.75
2018-08-23T12:33:00.129Z,4.95
2018-08-23T12:35:29.632Z,4.00
2018-08-23T12:38:03.874Z,3.33
2018-08-23T12:40:38.417Z,3.20
2018-08-23T12:43:09.052Z,4.47
2018-08-23T12:45:40.405Z,3.10
2018-08-23T12:48:10.755Z,2.92
2018-08-23T12:50:40.143Z,3.05
2018-08-23T12:53:09.219Z,4.45
2018-08-23T12:55:38.261Z,4.08
2018-08-23T12:58:11.290Z,4.80
2018-08-23T13:00:41.636Z,6.10
2018-08-23T13:03:10.891Z,4.30
2018-08-23T13:05:39.957Z,3.10
2018-08-23T13:08:09.068Z,3.05
2018-08-23T13:10:38.185Z,3.40
2018-08-23T13:13:07.236Z,3.17
2018-08-23T13:15:36.245Z,3.95
2018-08-23T13:18:06.156Z,3.17
2018-08-23T13:20:35.452Z,3.62
2018-08-23T13:23:04.440Z,3.22
2018-08-23T13:25:33.501Z,4.37
2018-08-23T13:28:02.851Z,4.03
2018-08-23T13:30:31.862Z,3.15
2018-08-23T13:33:00.890Z,4.37
2018-08-23T13:35:29.999Z,4.33
2018-08-23T13:37:58.970Z,4.03
2018-08-23T13:40:28.551Z,4.45
2018-08-23T13:42:57.588Z,4.58
2018-08-23T13:45:26.600Z,3.92
2018-08-23T13:47:55.647Z,4.83
2018-08-23T13:50:24.657Z,4.25
2018-08-23T13:52:53.666Z,3.62
2018-08-23T13:55:22.697Z,4.17
2018-08-23T13:57:51.753Z,3.50
2018-08-23T14:00:29.075Z,3.90
2018-08-23T14:02:58.709Z,6.37
2018-08-23T14:05:27.765Z,8.23
2018-08-23T14:07:56.800Z,5.25
2018-08-23T14:10:25.797Z,5.65
2018-08-23T14:12:55.067Z,6.17
2018-08-23T14:15:29.405Z,7.12
2018-08-23T14:17:58.541Z,5.90
2018-08-23T14:20:27.585Z,5.83
2018-08-23T14:22:56.640Z,10.23
2018-08-23T14:25:25.736Z,11.08
2018-08-23T14:27:55.037Z,8.65
2018-08-23T14:30:24.111Z,10.43
2018-08-23T14:32:53.133Z,9.63
2018-08-23T14:35:22.154Z,9.68
2018-08-23T14:37:51.165Z,8.95
2018-08-23T14:40:20.514Z,10.32
2018-08-23T14:42:49.487Z,7.20
2018-08-23T14:45:23.872Z,9.53
2018-08-23T14:47:58.281Z,6.78
2018-08-23T14:50:27.309Z,9.10
2018-08-23T14:52:56.424Z,10.80
2018-08-23T14:55:30.852Z,8.58
2018-08-23T14:57:59.848Z,10.63
2018-08-23T15:00:28.915Z,12.90
2018-08-23T15:02:57.952Z,13.65
2018-08-23T15:05:27.044Z,11.53
2018-08-23T15:07:56.352Z,12.78
2018-08-23T15:10:25.546Z,10.03
2018-08-23T15:12:54.589Z,12.10
2018-08-23T15:15:28.857Z,10.20
2018-08-23T15:17:57.847Z,13.28
2018-08-23T15:20:26.853Z,11.55
2018-08-23T15:22:56.162Z,14.90
2018-08-23T15:25:25.188Z,11.08
2018-08-23T15:27:54.182Z,7.90
2018-08-23T15:30:23.522Z,8.48
2018-08-23T15:32:52.515Z,12.33
2018-08-23T15:35:21.512Z,9.60
2018-08-23T15:37:50.516Z,9.05
2018-08-23T15:40:19.509Z,9.68
2018-08-23T15:42:48.549Z,10.95
2018-08-23T15:45:18.156Z,10.50
2018-08-23T15:47:47.334Z,9.98
2018-08-23T15:50:16.467Z,8.80
2018-08-23T15:52:45.499Z,10.88
2018-08-23T15:55:14.624Z,10.03
2018-08-23T15:57:43.552Z,10.60
2018-08-23T16:00:12.579Z,11.73
2018-08-23T16:02:41.559Z,11.18
2018-08-23T16:05:10.853Z,15.45
2018-08-23T16:07:39.852Z,11.53
2018-08-23T16:10:09.836Z,11.95
2018-08-23T16:12:39.000Z,13.50
2018-08-23T16:15:13.276Z,12.40
2018-08-23T16:17:47.556Z,12.43
2018-08-23T16:20:21.908Z,13.15
2018-08-23T16:22:51.099Z,12.45
2018-08-23T16:25:20.095Z,12.13
2018-08-23T16:27:50.672Z,10.45
2018-08-23T16:30:19.782Z,13.15
2018-08-23T16:32:48.816Z,12.28
2018-08-23T16:35:18.127Z,13.75
2018-08-23T16:37:47.150Z,9.70
2018-08-23T16:40:21.612Z,12.70
2018-08-23T16:42:50.600Z,12.25
2018-08-23T16:45:19.613Z,9.75
2018-08-23T16:47:48.655Z,12.82
2018-08-23T16:50:17.649Z,16.23
2018-08-23T16:52:46.709Z,12.33
2018-08-23T16:55:15.877Z,14.93
2018-08-23T16:57:45.001Z,11.55
2018-08-23T17:00:14.008Z,13.43
2018-08-23T17:02:43.033Z,11.70
2018-08-23T17:05:12.101Z,13.48
2018-08-23T17:07:41.150Z,13.80
2018-08-23T17:10:10.262Z,12.45
2018-08-23T17:12:39.305Z,15.83
2018-08-23T17:15:12.537Z,16.62
2018-08-23T17:17:44.798Z,16.20
2018-08-23T17:20:13.801Z,12.55
2018-08-23T17:22:42.825Z,14.00
2018-08-23T17:25:11.849Z,11.30
2018-08-23T17:27:41.109Z,11.78
2018-08-23T17:30:10.142Z,13.38
2018-08-23T17:32:45.001Z,13.45
2018-08-23T17:35:14.010Z,10.98
2018-08-23T17:37:43.026Z,10.48
2018-08-23T17:40:12.073Z,10.05
2018-08-23T17:42:43.965Z,9.45
2018-08-23T17:45:14.280Z,10.05
2018-08-23T17:47:43.337Z,12.43
2018-08-23T17:50:12.349Z,10.05
2018-08-23T17:52:41.406Z,11.08
2018-08-23T17:55:10.448Z,11.17
2018-08-23T17:57:39.513Z,11.05
2018-08-23T18:00:08.685Z,11.45
2018-08-23T18:02:37.756Z,13.93
2018-08-23T18:05:06.837Z,11.48
2018-08-23T18:07:36.536Z,10.63
2018-08-23T18:10:05.724Z,10.83
2018-08-23T18:12:34.824Z,10.97
2018-08-23T18:15:03.969Z,9.90
2018-08-23T18:17:33.045Z,9.30
2018-08-23T18:20:02.369Z,8.00
2018-08-23T18:22:31.377Z,8.23
2018-08-23T18:25:00.387Z,8.50
2018-08-23T18:27:29.428Z,7.37
2018-08-23T18:29:58.446Z,8.97
2018-08-23T18:32:27.783Z,9.73
2018-08-23T18:34:56.784Z,8.33
2018-08-23T18:37:25.839Z,7.57
2018-08-23T18:39:54.800Z,10.77
2018-08-23T18:42:23.800Z,7.47
2018-08-23T18:44:52.798Z,7.83
2018-08-23T18:47:21.835Z,9.87
2018-08-23T18:49:50.796Z,8.10
2018-08-23T18:52:19.953Z,7.57
2018-08-23T18:54:48.957Z,7.53
2018-08-23T18:57:17.991Z,11.07
2018-08-23T18:59:47.292Z,6.47
2018-08-23T19:02:16.264Z,9.17
2018-08-23T19:04:45.333Z,7.27
2018-08-23T19:07:19.850Z,35.50
2018-08-23T19:09:48.900Z,21.23
2018-08-23T19:12:17.881Z,13.77
2018-08-23T19:14:46.926Z,10.23
2018-08-23T19:17:21.146Z,10.53
2018-08-23T19:19:50.166Z,8.30
2018-08-23T19:22:19.163Z,6.37
2018-08-23T19:24:48.381Z,6.10
2018-08-23T19:27:17.373Z,6.83
2018-08-23T19:29:46.441Z,6.77
2018-08-23T19:32:15.464Z,7.70
2018-08-23T19:34:44.469Z,6.80
2018-08-23T19:37:13.675Z,7.23
2018-08-23T19:39:42.634Z,7.47
2018-08-23T19:42:11.626Z,6.20
2018-08-23T19:44:45.944Z,10.27
2018-08-23T19:47:20.190Z,6.07
2018-08-23T19:49:51.224Z,6.53
2018-08-23T19:52:20.744Z,9.50
2018-08-23T19:54:49.968Z,9.37
2018-08-23T19:57:18.985Z,6.73
2018-08-23T19:59:48.248Z,7.17
2018-08-23T20:02:17.261Z,9.57
2018-08-23T20:04:46.300Z,8.47
2018-08-23T20:07:15.833Z,7.00
2018-08-23T20:09:44.860Z,7.97
2018-08-23T20:12:13.909Z,8.83
2018-08-23T20:14:42.979Z,5.27
2018-08-23T20:17:11.989Z,6.63
2018-08-23T20:19:41.039Z,7.23
2018-08-23T20:22:10.057Z,5.43
2018-08-23T20:24:39.073Z,5.67
2018-08-23T20:27:08.097Z,6.77
2018-08-23T20:29:38.432Z,5.50
2018-08-23T20:32:07.752Z,7.47
2018-08-23T20:34:36.852Z,7.40
2018-08-23T20:37:05.901Z,7.57
2018-08-23T20:39:34.958Z,6.80
2018-08-23T20:42:03.972Z,5.80
2018-08-23T20:44:33.007Z,7.07
2018-08-23T20:47:02.034Z,6.60
2018-08-23T20:49:31.036Z,5.47
2018-08-23T20:52:00.040Z,5.40
2018-08-23T20:54:29.308Z,9.53
2018-08-23T20:56:58.303Z,9.00
2018-08-23T20:59:27.314Z,7.83
2018-08-23T21:01:56.437Z,5.83
2018-08-23T21:04:25.493Z,7.70
2018-08-23T21:06:54.447Z,6.57
2018-08-23T21:09:23.459Z,8.17
2018-08-23T21:11:52.457Z,9.30
2018-08-23T21:14:21.459Z,5.93
2018-08-23T21:16:56.562Z,6.20
2018-08-23T21:19:25.585Z,8.30
2018-08-23T21:21:54.568Z,7.10
2018-08-23T21:24:23.612Z,7.37
2018-08-23T21:26:52.701Z,7.70
2018-08-23T21:29:21.681Z,10.57
2018-08-23T21:31:50.720Z,7.13
2018-08-23T21:34:19.708Z,6.60
2018-08-23T21:36:48.733Z,7.10
2018-08-23T21:39:17.710Z,7.33
2018-08-23T21:41:46.998Z,6.17
2018-08-23T21:44:15.998Z,6.60
2018-08-23T21:46:45.093Z,6.53
2018-08-23T21:49:14.100Z,8.60
2018-08-23T21:51:43.097Z,10.27
2018-08-23T21:54:12.374Z,8.50
2018-08-23T21:56:41.403Z,6.93
2018-08-23T21:59:10.412Z,7.10
2018-08-23T22:01:39.466Z,7.47
2018-08-23T22:04:08.516Z,7.53
2018-08-23T22:06:37.576Z,9.23
2018-08-23T22:09:08.256Z,7.40
2018-08-23T22:11:37.309Z,7.07
2018-08-23T22:14:06.357Z,6.93
2018-08-23T22:16:35.348Z,6.83
2018-08-23T22:19:04.337Z,7.30
2018-08-23T22:21:33.344Z,6.97
2018-08-23T22:24:02.622Z,7.07
2018-08-23T22:26:31.622Z,6.30
2018-08-23T22:29:00.596Z,7.43
2018-08-23T22:31:29.761Z,8.37
2018-08-23T22:33:58.787Z,8.20
2018-08-23T22:36:27.777Z,9.60
2018-08-23T22:38:56.833Z,7.30
2018-08-23T22:41:25.852Z,8.00
2018-08-23T22:43:54.852Z,12.90
2018-08-23T22:46:23.856Z,7.40
2018-08-23T22:48:53.132Z,9.97
2018-08-23T22:51:22.215Z,7.73
2018-08-23T22:53:51.201Z,9.67
2018-08-23T22:56:20.269Z,7.17
2018-08-23T22:58:49.324Z,7.80
2018-08-23T23:01:18.350Z,7.60
2018-08-23T23:03:52.790Z,8.40
2018-08-23T23:06:21.834Z,6.50
2018-08-23T23:08:50.839Z,7.30
2018-08-23T23:11:19.861Z,6.30
2018-08-23T23:13:48.888Z,7.60
2018-08-23T23:16:17.914Z,6.13
2018-08-23T23:18:47.000Z,7.03
2018-08-23T23:21:16.017Z,5.53
2018-08-23T23:23:45.000Z,5.90
2018-08-23T23:26:14.042Z,7.07
2018-08-23T23:28:43.076Z,7.27
2018-08-23T23:31:12.127Z,8.60
2018-08-23T23:33:41.159Z,6.70
2018-08-23T23:36:10.161Z,5.17
2018-08-23T23:38:39.316Z,6.40
2018-08-23T23:41:08.331Z,5.77
2018-08-23T23:43:37.323Z,6.37
2018-08-23T23:46:06.493Z,5.30
2018-08-23T23:48:35.799Z,4.97
2018-08-23T23:51:05.295Z,5.57
2018-08-23T23:53:34.780Z,5.13
2018-08-23T23:56:03.789Z,4.40
2018-08-23T23:58:32.851Z,4.70
